Flight Track Log - Related Links

Times and Time Zones

All times are in EST time to prevent confusion due to time zone crossing. See the CSC8954 flight status page for this flight to view local times or setup timezone preferences in your user account.

Time Position Orientation Groundspeed Altitude Reporting Facility
EST Latitude Longitude Course Direction KTS MPH feet Rate Location/Type
Mon 11:07:00 AM 43.7798 88.0884 106° East  Level Estimated
Mon 11:08:00 AM 43.7475 88.2415 106° East  Level Estimated
Mon 11:09:00 AM 43.7150 88.3945 106° East  Level Estimated
Mon 11:10:00 AM 43.6822 88.5472 106° East  Level Estimated
Mon 11:11:00 AM 43.6493 88.6999 107° East  Level Estimated
Mon 11:12:00 AM 43.6162 88.8523 107° East  Level Estimated
Mon 11:13:00 AM 43.5828 89.0046 107° East  Level Estimated
Mon 11:14:00 AM 43.5493 89.1567 107° East  Level Estimated
Mon 11:15:00 AM 43.5155 89.3087 107° East  Level Estimated
Mon 11:16:00 AM 43.4816 89.4605 107° East  Level Estimated
Mon 11:17:00 AM 43.4474 89.6121 107° East  Level Estimated
Mon 11:18:00 AM 43.4131 89.7635 107° East  Level Estimated
Mon 11:19:00 AM 43.3785 89.9148 107° East  Level Estimated
Mon 11:20:00 AM 43.3438 90.0659 108° East  Level Estimated
Mon 11:21:00 AM 43.3088 90.2168 108° East  Level Estimated
Mon 11:22:00 AM 43.2737 90.3675 108° East  Level Estimated
Mon 11:23:00 AM 43.2383 90.5181 108° East  Level Estimated
Mon 11:24:00 AM 43.2028 90.6685 108° East  Level Estimated
Mon 11:25:00 AM 43.1670 90.8187 108° East  Level Estimated
Mon 11:26:00 AM 43.1311 90.9688 108° East  Level Estimated
Mon 11:27:00 AM 43.0950 91.1186 108° East  Level Estimated
Mon 11:28:00 AM 43.0587 91.2683 108° East  Level Estimated
Mon 11:29:00 AM 43.0221 91.4178 108° East  Level Estimated
Mon 11:30:00 AM 42.9854 91.5671 109° East  Level Estimated
Mon 11:31:00 AM 42.9485 91.7163 109° East  Level Estimated
Mon 11:32:00 AM 42.9114 91.8653 109° East  Level Estimated
Mon 11:33:00 AM 42.8741 92.0141 109° East  Level Estimated
Mon 11:34:00 AM 42.8366 92.1627 109° East  Level Estimated
Mon 11:35:00 AM 42.7989 92.3111 109° East  Level Estimated
Mon 11:36:00 AM 42.7611 92.4594 109° East  Level Estimated
Mon 11:37:00 AM 42.7230 92.6074 109° East  Level Estimated
Mon 11:38:00 AM 42.6848 92.7553 109° East  Level Estimated
Mon 11:39:00 AM 42.6463 92.9030 109° East  Level Estimated
Mon 11:40:00 AM 42.6077 93.0505 110° East  Level Estimated
Mon 11:41:00 AM 42.5689 93.1979 110° East  Level Estimated
Mon 11:42:00 AM 42.5299 93.3450 110° East  Level Estimated
Mon 11:43:00 AM 42.4907 93.4920 110° East  Level Estimated
Mon 11:44:00 AM 42.4513 93.6388 110° East  Level Estimated
Mon 11:45:00 AM 42.4117 93.7854 110° East  Level Estimated
Mon 11:46:00 AM 42.3719 93.9318 110° East  Level Estimated
Mon 11:47:00 AM 42.3320 94.0780 110° East  Level Estimated
Mon 11:48:00 AM 42.2919 94.2241 110° East  Level Estimated
Mon 11:49:00 AM 42.2515 94.3700 110° East  Level Estimated
Mon 11:50:00 AM 42.2110 94.5156 111° Southeast  Level Estimated
Mon 11:51:00 AM 42.1704 94.6611 111° Southeast  Level Estimated
Mon 11:52:00 AM 42.1295 94.8064 111° Southeast  Level Estimated
Mon 11:53:00 AM 42.0885 94.9515 111° Southeast  Level Estimated
Mon 11:54:00 AM 42.0472 95.0965 111° Southeast  Level Estimated
Mon 11:55:00 AM 42.0058 95.2412 111° Southeast  Level Estimated
Mon 11:56:00 AM 41.9642 95.3857 111° Southeast  Level Estimated
Mon 11:57:00 AM 41.9224 95.5301 111° Southeast  Level Estimated
Mon 11:58:00 AM 41.8805 95.6742 111° Southeast  Level Estimated
Mon 11:59:00 AM 41.8383 95.8182 111° Southeast  Level Estimated
Mon 12:00:00 PM 41.7960 95.9620 112° Southeast  Level Estimated
Mon 12:01:00 PM 41.7535 96.1056 112° Southeast  Level Estimated
Mon 12:02:00 PM 41.7108 96.2490 112° Southeast  Level Estimated
Mon 12:03:00 PM 41.6680 96.3923 112° Southeast  Level Estimated
Mon 12:04:00 PM 41.6249 96.5353 112° Southeast  Level Estimated
Mon 12:05:00 PM 41.5817 96.6781 112° Southeast  Level Estimated
Mon 12:06:00 PM 41.5383 96.8207 112° Southeast  Level Estimated
Mon 12:07:00 PM 41.4948 96.9632 112° Southeast  Level Estimated
Mon 12:08:00 PM 41.4510 97.1055 112° Southeast  Level Estimated
Mon 12:09:00 PM 41.4071 97.2475 112° Southeast  Level Estimated
Mon 12:10:00 PM 41.3630 97.3894 112° Southeast  Level Estimated
Mon 12:11:00 PM 41.3188 97.5311 113° Southeast  Level Estimated
Mon 12:12:00 PM 41.2744 97.6726 113° Southeast  Level Estimated
Mon 12:13:00 PM 41.2298 97.8139 113° Southeast  Level Estimated
Mon 12:14:00 PM 41.1850 97.9550 113° Southeast  Level Estimated
Mon 12:15:00 PM 41.1400 98.0959 113° Southeast  Level Estimated
Mon 12:16:00 PM 41.0949 98.2366 113° Southeast  Level Estimated
Mon 12:17:00 PM 41.0496 98.3771 113° Southeast  Level Estimated
Mon 12:18:00 PM 41.0042 98.5174 113° Southeast  Level Estimated
Mon 12:19:00 PM 40.9585 98.6576 113° Southeast  Level Estimated
Mon 12:20:00 PM 40.9127 98.7975 113° Southeast  Level Estimated
Mon 12:21:00 PM 40.8667 98.9373 113° Southeast  Level Estimated
Mon 12:22:00 PM 40.8206 99.0768 114° Southeast  Level Estimated
Mon 12:23:00 PM 40.7743 99.2162 114° Southeast  Level Estimated
Mon 12:24:00 PM 40.7278 99.3553 114° Southeast  Level Estimated
Mon 12:25:00 PM 40.6812 99.4943 114° Southeast  Level Estimated
Mon 12:26:00 PM 40.6344 99.6331 114° Southeast  Level Estimated
Mon 12:27:00 PM 40.5874 99.7717 114° Southeast  Level Estimated
Mon 12:28:00 PM 40.5402 99.9101 114° Southeast  Level Estimated
Mon 12:29:00 PM 40.4929 100.0482 114° Southeast  Level Estimated
Mon 12:30:00 PM 40.4455 100.1862 114° Southeast  Level Estimated
Mon 12:31:00 PM 40.3978 100.3241 114° Southeast  Level Estimated
Mon 12:32:00 PM 40.3500 100.4617 114° Southeast  Level Estimated
Mon 12:33:00 PM 40.3021 100.5991 115° Southeast  Level Estimated
Mon 12:34:00 PM 40.2540 100.7363 115° Southeast  Level Estimated
Mon 12:35:00 PM 40.2057 100.8733 115° Southeast  Level Estimated
Mon 12:36:00 PM 40.1572 101.0101 115° Southeast  Level Estimated
Mon 12:37:00 PM 40.1086 101.1468 115° Southeast  Level Estimated
Mon 12:38:00 PM 40.0598 101.2832 115° Southeast  Level Estimated
Mon 12:39:00 PM 40.0109 101.4194 115° Southeast  Level Estimated
Mon 12:40:00 PM 39.9618 101.5555 115° Southeast  Level Estimated
Mon 12:41:00 PM 39.9126 101.6913 115° Southeast  Level Estimated
Mon 12:42:00 PM 39.8632 101.8270 115° Southeast  Level Estimated
Mon 12:43:00 PM 39.8136 101.9624 115° Southeast  Level Estimated
Mon 12:44:00 PM 39.7639 102.0977 116° Southeast  Level Estimated
Mon 12:45:00 PM 39.7140 102.2327 116° Southeast  Level Estimated
Mon 12:46:00 PM 39.6640 102.3676 116° Southeast  Level Estimated
Mon 12:47:00 PM 39.6138 102.5023 116° Southeast  Level Estimated
Mon 12:48:00 PM 39.5635 102.6368 116° Southeast  Level Estimated
Mon 12:49:00 PM 39.5130 102.7710 116° Southeast  Level Estimated
Mon 12:50:00 PM 39.4623 102.9051 116° Southeast  Level Estimated
Mon 12:51:00 PM 39.4115 103.0390 116° Southeast  Level Estimated
Mon 12:52:00 PM 39.3606 103.1727 116° Southeast  Level Estimated
Mon 12:53:00 PM 39.3095 103.3062 116° Southeast  Level Estimated
Mon 12:54:00 PM 39.2582 103.4395 116° Southeast  Level Estimated
Mon 12:55:00 PM 39.2068 103.5726 116° Southeast  Level Estimated
Mon 12:56:00 PM 39.1552 103.7056 117° Southeast  Level Estimated
Mon 12:57:00 PM 39.1035 103.8383 117° Southeast  Level Estimated
Mon 12:58:00 PM 39.0516 103.9708 117° Southeast  Level Estimated
Mon 12:59:00 PM 38.9996 104.1031 117° Southeast  Level Estimated
Mon 01:00:00 PM 38.9474 104.2353 117° Southeast  Level Estimated
Mon 01:01:00 PM 38.8951 104.3672 117° Southeast  Level Estimated
Mon 01:02:00 PM 38.8427 104.4990 117° Southeast  Level Estimated
Mon 01:03:00 PM 38.7901 104.6305 117° Southeast  Level Estimated
Mon 01:04:00 PM 38.7373 104.7619 117° Southeast  Level Estimated
Mon 01:05:00 PM 38.6844 104.8931 117° Southeast  Level Estimated
Mon 01:06:00 PM 38.6314 105.0240 117° Southeast  Level Estimated
Mon 01:07:00 PM 38.5782 105.1548 117° Southeast  Level Estimated
Mon 01:08:00 PM 38.5248 105.2854 118° Southeast  Level Estimated
Mon 01:09:00 PM 38.4713 105.4158 118° Southeast  Level Estimated
Mon 01:10:00 PM 38.4177 105.5460 118° Southeast  Level Estimated
Mon 01:11:00 PM 38.3639 105.6760 118° Southeast  Level Estimated
Mon 01:12:00 PM 38.3100 105.8058 118° Southeast  Level Estimated
Mon 01:13:00 PM 38.2559 105.9354 118° Southeast  Level Estimated
Mon 01:14:00 PM 38.2017 106.0648 118° Southeast  Level Estimated
Mon 01:15:00 PM 38.1474 106.1941 118° Southeast  Level Estimated
Mon 01:16:00 PM 38.0929 106.3231 118° Southeast  Level Estimated
Mon 01:17:00 PM 38.0383 106.4519 118° Southeast  Level Estimated
Mon 01:18:00 PM 37.9835 106.5806 118° Southeast  Level Estimated
Mon 01:19:00 PM 37.9286 106.7091 118° Southeast  Level Estimated
Mon 01:20:00 PM 37.8735 106.8373 119° Southeast  Level Estimated
Mon 01:21:00 PM 37.8184 106.9654 119° Southeast  Level Estimated
Mon 01:22:00 PM 37.7630 107.0933 119° Southeast  Level Estimated
Mon 01:23:00 PM 37.7076 107.2210 119° Southeast  Level Estimated
Mon 01:24:00 PM 37.6520 107.3485 119° Southeast  Level Estimated
Mon 01:25:00 PM 37.5962 107.4758 119° Southeast  Level Estimated
Mon 01:26:00 PM 37.5404 107.6029 119° Southeast  Level Estimated
Mon 01:27:00 PM 37.4843 107.7298 119° Southeast  Level Estimated
Mon 01:28:00 PM 37.4282 107.8566 119° Southeast  Level Estimated
Mon 01:29:00 PM 37.3719 107.9831 119° Southeast  Level Estimated
Mon 01:30:00 PM 37.3155 108.1095 119° Southeast  Level Estimated
Mon 01:31:00 PM 37.2590 108.2357 119° Southeast  Level Estimated
Mon 01:32:00 PM 37.2023 108.3616 119° Southeast  Level Estimated
Mon 01:33:00 PM 37.1455 108.4874 120° Southeast  Level Estimated
Mon 01:34:00 PM 37.0885 108.6130 120° Southeast  Level Estimated
Mon 01:35:00 PM 37.0314 108.7384 120° Southeast  Level Estimated
Mon 01:36:00 PM 36.9742 108.8637 120° Southeast  Level Estimated
Mon 01:37:00 PM 36.9169 108.9887 120° Southeast  Level Estimated
Mon 01:38:00 PM 36.8594 109.1135 120° Southeast  Level Estimated
Mon 01:39:00 PM 36.8018 109.2382 120° Southeast  Level Estimated
Mon 01:40:00 PM 36.7441 109.3627 120° Southeast  Level Estimated
Mon 01:41:00 PM 36.6862 109.4870 120° Southeast  Level Estimated
Mon 01:42:00 PM 36.6282 109.6111 120° Southeast  Level Estimated
Mon 01:43:00 PM 36.5701 109.7350 120° Southeast  Level Estimated
Mon 01:44:00 PM 36.5118 109.8587 120° Southeast  Level Estimated
Mon 01:45:00 PM 36.4535 109.9822 120° Southeast  Level Estimated
Mon 01:46:00 PM 36.3950 110.1056 120° Southeast  Level Estimated
Mon 01:47:00 PM 36.3363 110.2288 121° Southeast  Level Estimated
Mon 01:48:00 PM 36.2776 110.3517 121° Southeast  Level Estimated
Mon 01:49:00 PM 36.2187 110.4745 121° Southeast  Level Estimated
Mon 01:50:00 PM 36.1597 110.5972 121° Southeast  Level Estimated
Mon 01:51:00 PM 36.1006 110.7196 121° Southeast  Level Estimated
Mon 01:52:00 PM 36.0413 110.8418 121° Southeast  Level Estimated
Mon 01:53:00 PM 35.9819 110.9639 121° Southeast  Level Estimated
Mon 01:54:00 PM 35.9224 111.0857 121° Southeast  Level Estimated
Mon 01:55:00 PM 35.8628 111.2074 121° Southeast  Level Estimated
Mon 01:56:00 PM 35.8030 111.3289 121° Southeast  Level Estimated
Mon 01:57:00 PM 35.7431 111.4503 121° Southeast  Level Estimated
Mon 01:58:00 PM 35.6832 111.5714 121° Southeast  Level Estimated
Mon 01:59:00 PM 35.6230 111.6924 121° Southeast  Level Estimated
Mon 02:00:00 PM 35.5628 111.8131 121° Southeast  Level Estimated
Mon 02:01:00 PM 35.5024 111.9337 122° Southeast  Level Estimated
Mon 02:02:00 PM 35.4420 112.0542 122° Southeast  Level Estimated
Mon 02:03:00 PM 35.3814 112.1744 122° Southeast  Level Estimated
Mon 02:04:00 PM 35.3206 112.2944 122° Southeast  Level Estimated
Mon 02:05:00 PM 35.2598 112.4143 122° Southeast  Level Estimated
Mon 02:06:00 PM 35.1989 112.5340 122° Southeast  Level Estimated
Mon 02:07:00 PM 35.1378 112.6535 122° Southeast  Level Estimated
Mon 02:08:00 PM 35.0766 112.7729 122° Southeast  Level Estimated
Mon 02:09:00 PM 35.0153 112.8920 122° Southeast  Level Estimated
Mon 02:10:00 PM 34.9539 113.0110 122° Southeast  Level Estimated
Mon 02:11:00 PM 34.8924 113.1298 122° Southeast  Level Estimated
Mon 02:12:00 PM 34.8307 113.2484 122° Southeast  Level Estimated
Mon 02:13:00 PM 34.7689 113.3669 122° Southeast  Level Estimated
Mon 02:14:00 PM 34.7071 113.4851 122° Southeast  Level Estimated
Mon 02:15:00 PM 34.6451 113.6032 123° Southeast  Level Estimated
Mon 02:16:00 PM 34.5830 113.7211 123° Southeast  Level Estimated
Mon 02:17:00 PM 34.5207 113.8389 123° Southeast  Level Estimated
Mon 02:18:00 PM 34.5197 113.8409 123° Southeast  Level Estimated
Mon 02:19:00 PM 34.5197 113.8409 338° Northwest  Level Estimated
Mon 02:20:00 PM 34.5197 113.8409 338° Northwest  Level Estimated
Mon 02:21:00 PM 34.5197 113.8409 338° Northwest  Level Estimated
Mon 02:22:00 PM 34.5197 113.8409 338° Northwest  Level Estimated
Mon 02:23:00 PM 34.5197 113.8409 338° Northwest  Level Estimated
Mon 02:24:00 PM 34.5197 113.8409 338° Northwest  Level Estimated
Mon 02:25:00 PM 34.5197 113.8409 338° Northwest  Level Estimated
Mon 02:26:00 PM 34.5197 113.8409 338° Northwest  Level Estimated
Mon 02:27:00 PM 34.5197 113.8409 338° Northwest  Level Estimated
Mon 02:28:00 PM 34.5197 113.8409 338° Northwest  Level Estimated
Mon 02:29:00 PM 34.5197 113.8409 338° Northwest  Level Estimated
Mon 02:30:00 PM 34.5197 113.8409 338° Northwest  Level Estimated
Mon 02:31:00 PM 34.5197 113.8409 338° Northwest  Level Estimated

Login

Don't have an account? Register now (free) for customized features, flight alerts, and more!